createdAt,value
2019-02-06T00:02:01.924Z,24.10
2019-02-06T00:04:30.714Z,18.07
2019-02-06T00:06:59.497Z,19.23
2019-02-06T00:09:28.283Z,18.30
2019-02-06T00:11:57.098Z,19.63
2019-02-06T00:14:26.127Z,18.90
2019-02-06T00:16:54.851Z,17.63
2019-02-06T00:19:23.710Z,15.67
2019-02-06T00:21:52.530Z,21.00
2019-02-06T00:24:22.008Z,20.47
2019-02-06T00:26:50.888Z,18.90
2019-02-06T00:29:19.676Z,16.93
2019-02-06T00:31:48.463Z,17.17
2019-02-06T00:34:17.407Z,16.83
2019-02-06T00:36:46.297Z,18.97
2019-02-06T00:39:15.201Z,14.33
2019-02-06T00:41:44.027Z,16.77
2019-02-06T00:44:12.864Z,18.00
2019-02-06T00:46:41.732Z,15.43
2019-02-06T00:49:10.548Z,15.73
2019-02-06T00:51:39.383Z,18.03
2019-02-06T00:54:08.204Z,17.30
2019-02-06T00:56:36.997Z,19.37
2019-02-06T00:59:05.903Z,15.80
2019-02-06T01:01:34.715Z,15.53
2019-02-06T01:04:03.527Z,13.97
2019-02-06T01:06:32.313Z,16.20
2019-02-06T01:09:01.199Z,14.60
2019-02-06T01:11:30.032Z,15.90
2019-02-06T01:13:58.859Z,13.87
2019-02-06T01:16:27.771Z,14.00
2019-02-06T01:18:56.618Z,23.30
2019-02-06T01:21:25.470Z,14.90
2019-02-06T01:23:54.308Z,15.90
2019-02-06T01:26:23.105Z,17.50
2019-02-06T01:28:51.924Z,14.33
2019-02-06T01:31:23.508Z,13.63
2019-02-06T01:33:52.299Z,17.43
2019-02-06T01:36:21.069Z,15.27
2019-02-06T01:38:49.963Z,14.47
2019-02-06T01:41:18.754Z,14.63
2019-02-06T01:43:47.549Z,16.43
2019-02-06T01:46:16.376Z,15.17
2019-02-06T01:48:45.203Z,17.97
2019-02-06T01:51:13.992Z,16.63
2019-02-06T01:53:42.819Z,15.90
2019-02-06T01:56:11.630Z,15.67
2019-02-06T01:58:40.464Z,16.33
2019-02-06T02:01:09.256Z,17.00
2019-02-06T02:03:38.069Z,16.17
2019-02-06T02:06:06.881Z,15.43
2019-02-06T02:08:37.065Z,16.53
2019-02-06T02:11:06.196Z,17.07
2019-02-06T02:13:35.145Z,19.77
2019-02-06T02:16:03.938Z,16.30
2019-02-06T02:18:32.751Z,17.63
2019-02-06T02:21:01.587Z,18.73
2019-02-06T02:23:30.431Z,18.03
2019-02-06T02:25:59.211Z,17.60
2019-02-06T02:28:27.999Z,16.07
2019-02-06T02:30:56.917Z,15.57
2019-02-06T02:33:25.727Z,19.43
2019-02-06T02:35:54.525Z,16.80
2019-02-06T02:38:23.324Z,17.33
2019-02-06T02:40:52.092Z,18.57
2019-02-06T02:43:20.886Z,16.83
2019-02-06T02:45:49.716Z,19.93
2019-02-06T02:48:18.502Z,16.20
2019-02-06T02:50:47.423Z,20.87
2019-02-06T02:53:16.232Z,18.73
2019-02-06T02:55:44.999Z,17.80
2019-02-06T02:58:13.885Z,17.10
2019-02-06T03:00:46.892Z,18.53
2019-02-06T03:03:20.877Z,19.23
2019-02-06T03:05:49.700Z,20.57
2019-02-06T03:08:18.624Z,19.33
2019-02-06T03:10:47.410Z,16.30
2019-02-06T03:13:16.210Z,21.77
2019-02-06T03:15:45.044Z,20.57
2019-02-06T03:18:13.916Z,21.87
2019-02-06T03:20:45.059Z,18.90
2019-02-06T03:23:14.895Z,19.23
2019-02-06T03:25:43.644Z,16.63
2019-02-06T03:28:12.463Z,22.97
2019-02-06T03:30:41.292Z,18.20
2019-02-06T03:33:10.117Z,20.43
2019-02-06T03:35:38.919Z,20.67
2019-02-06T03:38:07.785Z,19.93
2019-02-06T03:40:36.559Z,18.70
2019-02-06T03:43:05.346Z,19.37
2019-02-06T03:45:34.194Z,18.93
2019-02-06T03:48:03.158Z,17.53
2019-02-06T03:50:31.979Z,20.93
2019-02-06T03:53:00.799Z,22.83
2019-02-06T03:55:29.678Z,18.43
2019-02-06T03:57:58.464Z,22.43
2019-02-06T04:00:27.249Z,21.83
2019-02-06T04:02:56.030Z,26.73
2019-02-06T04:05:24.941Z,20.13
2019-02-06T04:07:53.779Z,22.50
2019-02-06T04:10:22.595Z,19.70
2019-02-06T04:12:51.389Z,17.87
2019-02-06T04:15:20.155Z,20.60
2019-02-06T04:17:49.043Z,18.80
2019-02-06T04:20:17.894Z,18.83
2019-02-06T04:22:46.669Z,18.47
2019-02-06T04:25:15.468Z,18.90
2019-02-06T04:27:44.267Z,21.57
2019-02-06T04:30:13.257Z,19.40
2019-02-06T04:32:42.214Z,19.00
2019-02-06T04:35:11.569Z,18.20
2019-02-06T04:37:40.388Z,20.13
2019-02-06T04:40:12.218Z,21.80
2019-02-06T04:42:41.030Z,22.03
2019-02-06T04:45:10.270Z,18.87
2019-02-06T04:47:38.892Z,17.90
2019-02-06T04:50:08.395Z,19.77
2019-02-06T04:52:37.291Z,20.17
2019-02-06T04:55:06.713Z,17.97
2019-02-06T04:57:35.528Z,17.57
2019-02-06T05:00:07.850Z,19.70
2019-02-06T05:02:36.699Z,18.47
2019-02-06T05:05:05.822Z,20.10
2019-02-06T05:07:34.661Z,17.10
2019-02-06T05:10:03.460Z,19.23
2019-02-06T05:12:32.337Z,21.80
2019-02-06T05:15:01.110Z,19.27
2019-02-06T05:17:29.891Z,21.77
2019-02-06T05:19:58.695Z,23.67
2019-02-06T05:22:27.467Z,19.33
2019-02-06T05:24:56.286Z,21.27
2019-02-06T05:27:25.131Z,18.50
2019-02-06T05:29:53.914Z,20.60
2019-02-06T05:32:22.714Z,21.87
2019-02-06T05:34:51.571Z,18.87
2019-02-06T05:37:31.816Z,23.57
2019-02-06T05:39:49.210Z,23.00
2019-02-06T05:42:17.987Z,28.73
2019-02-06T05:44:47.621Z,25.43
2019-02-06T05:47:16.339Z,23.70
2019-02-06T05:49:45.165Z,24.73
2019-02-06T05:52:14.694Z,22.40
2019-02-06T05:54:43.477Z,28.23
2019-02-06T05:57:12.436Z,24.23
2019-02-06T05:59:41.214Z,26.83
2019-02-06T06:02:09.983Z,26.43
2019-02-06T06:04:38.770Z,24.90
2019-02-06T06:07:14.163Z,25.03
2019-02-06T06:09:43.059Z,21.03
2019-02-06T06:12:11.942Z,25.97
2019-02-06T06:14:40.741Z,24.93
2019-02-06T06:17:09.605Z,21.07
2019-02-06T06:19:38.387Z,24.63
2019-02-06T06:22:07.195Z,23.87
2019-02-06T06:24:36.000Z,22.63
2019-02-06T06:27:04.803Z,24.53
2019-02-06T06:29:33.643Z,26.33
2019-02-06T06:32:02.523Z,20.97
2019-02-06T06:34:31.401Z,20.20
2019-02-06T06:37:00.233Z,23.53
2019-02-06T06:39:29.017Z,22.70
2019-02-06T06:41:57.802Z,21.03
2019-02-06T06:44:26.570Z,21.73
2019-02-06T06:46:55.477Z,28.17
2019-02-06T06:49:24.309Z,22.17
2019-02-06T06:51:53.093Z,22.13
2019-02-06T06:54:21.917Z,23.67
2019-02-06T06:56:50.702Z,23.57
2019-02-06T06:59:19.569Z,21.10
2019-02-06T07:01:48.348Z,44.07
2019-02-06T07:04:17.142Z,26.27
2019-02-06T07:06:46.542Z,22.87
2019-02-06T07:09:14.761Z,20.03
2019-02-06T07:11:43.548Z,24.83
2019-02-06T07:14:12.383Z,20.80
2019-02-06T07:16:41.213Z,18.80
2019-02-06T07:19:09.971Z,20.27
2019-02-06T07:21:38.792Z,20.77
2019-02-06T07:24:07.648Z,17.10
2019-02-06T07:26:36.426Z,21.53
2019-02-06T07:29:05.239Z,19.60
2019-02-06T07:31:34.024Z,20.73
2019-02-06T07:34:02.841Z,25.37
2019-02-06T07:36:31.644Z,20.90
2019-02-06T07:39:00.430Z,21.97
2019-02-06T07:41:29.225Z,18.60
2019-02-06T07:43:58.068Z,19.43
2019-02-06T07:46:26.903Z,22.37
2019-02-06T07:48:55.792Z,21.87
2019-02-06T07:51:24.664Z,23.43
2019-02-06T07:53:53.606Z,23.00
2019-02-06T07:56:22.486Z,23.73
2019-02-06T07:58:51.270Z,20.50
2019-02-06T08:01:20.073Z,18.37
2019-02-06T08:03:48.892Z,17.90
2019-02-06T08:06:17.677Z,19.83
2019-02-06T08:08:46.499Z,17.90
2019-02-06T08:11:15.361Z,23.13
2019-02-06T08:13:44.086Z,20.57
2019-02-06T08:16:12.905Z,20.13
2019-02-06T08:18:41.700Z,20.07
2019-02-06T08:21:10.543Z,22.30
2019-02-06T08:23:39.339Z,20.63
2019-02-06T08:26:08.171Z,24.17
2019-02-06T08:28:37.002Z,24.20
2019-02-06T08:31:05.889Z,21.97
2019-02-06T08:33:34.672Z,22.53
2019-02-06T08:36:03.453Z,23.50
2019-02-06T08:38:32.259Z,20.87
2019-02-06T08:41:01.041Z,24.00
2019-02-06T08:43:29.880Z,24.00
2019-02-06T08:45:58.669Z,24.27
2019-02-06T08:48:27.503Z,20.20
2019-02-06T08:50:56.291Z,23.90
2019-02-06T08:53:25.069Z,17.37
2019-02-06T08:55:54.003Z,24.40
2019-02-06T08:58:22.810Z,31.27
2019-02-06T09:00:51.703Z,22.37
2019-02-06T09:03:20.512Z,24.33
2019-02-06T09:05:49.358Z,20.10
2019-02-06T09:08:18.203Z,25.77
2019-02-06T09:10:47.041Z,45.17
2019-02-06T09:13:15.873Z,39.03
2019-02-06T09:15:44.644Z,36.00
2019-02-06T09:18:13.424Z,26.80
2019-02-06T09:20:42.816Z,26.47
2019-02-06T09:23:11.620Z,28.50
2019-02-06T09:25:40.515Z,25.10
2019-02-06T09:28:12.379Z,26.90
2019-02-06T09:30:41.157Z,31.17
2019-02-06T09:33:10.102Z,25.30
2019-02-06T09:35:38.943Z,24.33
2019-02-06T09:38:07.702Z,30.13
2019-02-06T09:40:36.565Z,28.33
2019-02-06T09:43:05.355Z,27.23
2019-02-06T09:45:34.181Z,26.60
2019-02-06T09:48:02.950Z,28.13
2019-02-06T09:50:33.718Z,26.17
2019-02-06T09:53:03.094Z,28.47
2019-02-06T09:55:31.908Z,25.37
2019-02-06T09:58:00.687Z,31.80
2019-02-06T10:00:34.092Z,29.93
2019-02-06T10:03:02.886Z,27.70
2019-02-06T10:05:32.282Z,31.00
2019-02-06T10:08:01.106Z,31.80
2019-02-06T10:10:29.908Z,29.03
2019-02-06T10:12:58.776Z,30.27
2019-02-06T10:15:29.629Z,25.17
2019-02-06T10:17:59.215Z,29.63
2019-02-06T10:20:31.556Z,34.73
2019-02-06T10:23:00.351Z,36.10
2019-02-06T10:25:29.131Z,31.47
2019-02-06T10:27:57.923Z,27.23
2019-02-06T10:30:29.267Z,27.13
2019-02-06T10:32:58.055Z,31.77
2019-02-06T10:35:26.843Z,32.63
2019-02-06T10:37:55.715Z,23.67
2019-02-06T10:40:24.544Z,24.00
2019-02-06T10:42:53.455Z,25.77
2019-02-06T10:45:22.183Z,23.47
2019-02-06T10:47:51.223Z,28.47
2019-02-06T10:50:22.008Z,30.00
2019-02-06T10:52:50.795Z,29.93
2019-02-06T10:55:19.635Z,31.93
2019-02-06T10:57:48.461Z,28.37
2019-02-06T11:00:22.072Z,29.80
2019-02-06T11:02:50.919Z,32.87
2019-02-06T11:05:19.695Z,23.93
2019-02-06T11:07:48.503Z,27.40
2019-02-06T11:10:17.342Z,25.13
2019-02-06T11:12:46.194Z,25.47
2019-02-06T11:15:15.037Z,30.57
2019-02-06T11:17:43.863Z,25.23
2019-02-06T11:20:15.284Z,29.53
2019-02-06T11:22:44.175Z,25.27
2019-02-06T11:25:13.367Z,25.33
2019-02-06T11:27:42.235Z,24.97
2019-02-06T11:30:16.159Z,25.90
2019-02-06T11:32:44.975Z,28.13
2019-02-06T11:35:14.150Z,29.23
2019-02-06T11:37:42.930Z,23.57
2019-02-06T11:40:15.316Z,27.00
2019-02-06T11:42:42.892Z,26.33
2019-02-06T11:45:13.274Z,28.83
2019-02-06T11:47:42.091Z,27.00
2019-02-06T11:50:12.814Z,25.33
2019-02-06T11:52:41.614Z,27.23
2019-02-06T11:55:13.288Z,27.50
2019-02-06T11:57:42.204Z,23.77
2019-02-06T12:00:13.696Z,23.20
2019-02-06T12:02:42.524Z,29.30
2019-02-06T12:05:11.311Z,26.83
2019-02-06T12:07:40.124Z,22.97
2019-02-06T12:10:11.707Z,23.70
2019-02-06T12:12:40.575Z,25.77
2019-02-06T12:15:13.183Z,27.73
2019-02-06T12:17:42.018Z,26.40
2019-02-06T12:20:13.814Z,25.27
2019-02-06T12:22:42.690Z,27.53
2019-02-06T12:25:12.000Z,23.77
2019-02-06T12:27:40.802Z,27.53
2019-02-06T12:30:14.772Z,25.10
2019-02-06T12:32:51.978Z,24.30
2019-02-06T12:35:12.380Z,25.13
2019-02-06T12:37:41.191Z,24.07
2019-02-06T12:40:20.751Z,27.10
2019-02-06T12:42:38.902Z,27.07
2019-02-06T12:45:07.740Z,34.30
2019-02-06T12:47:36.577Z,27.60
2019-02-06T12:50:06.127Z,29.07
2019-02-06T12:52:34.894Z,28.13
2019-02-06T12:55:04.051Z,28.00
2019-02-06T12:57:37.054Z,30.53
2019-02-06T13:00:01.660Z,30.43
2019-02-06T13:02:30.547Z,39.67
2019-02-06T13:04:59.397Z,34.00
2019-02-06T13:07:28.241Z,24.87
2019-02-06T13:09:57.099Z,36.00
2019-02-06T13:12:27.374Z,23.70
2019-02-06T13:14:54.794Z,29.40
2019-02-06T13:17:23.703Z,30.33
2019-02-06T13:19:52.711Z,23.73
2019-02-06T13:22:21.524Z,31.93
2019-02-06T13:24:50.310Z,25.20
2019-02-06T13:27:19.232Z,32.07
2019-02-06T13:29:48.058Z,26.00
2019-02-06T13:32:16.930Z,27.17
2019-02-06T13:34:45.748Z,25.70
2019-02-06T13:37:14.543Z,26.77
2019-02-06T13:39:43.338Z,25.60
2019-02-06T13:42:12.137Z,23.87
2019-02-06T13:44:41.632Z,25.07
2019-02-06T13:47:09.766Z,24.73
2019-02-06T13:49:38.543Z,35.43
2019-02-06T13:52:07.383Z,25.87
2019-02-06T13:54:36.245Z,32.83
2019-02-06T13:57:05.079Z,27.37
2019-02-06T13:59:33.944Z,32.07
2019-02-06T14:02:03.451Z,29.60
2019-02-06T14:04:32.310Z,29.40
2019-02-06T14:07:01.142Z,23.53
2019-02-06T14:09:29.930Z,28.20
2019-02-06T14:11:58.720Z,26.67
2019-02-06T14:14:27.537Z,25.20
2019-02-06T14:16:56.354Z,27.50
2019-02-06T14:19:25.141Z,29.07
2019-02-06T14:21:54.063Z,30.27
2019-02-06T14:24:31.431Z,32.97
2019-02-06T14:29:17.147Z,29.97
2019-02-06T14:32:33.419Z,30.20
2019-02-06T14:37:21.691Z,41.63
2019-02-06T14:40:00.935Z,50.00
2019-02-06T14:42:40.475Z,31.57
2019-02-06T14:45:43.727Z,33.43
2019-02-06T14:48:22.669Z,34.53
2019-02-06T14:51:01.291Z,23.93
2019-02-06T14:53:43.810Z,30.60
2019-02-06T14:56:25.070Z,32.10
2019-02-06T14:59:07.005Z,31.23
2019-02-06T15:01:51.222Z,24.23
2019-02-06T15:04:40.371Z,35.47
2019-02-06T15:07:48.666Z,31.83
2019-02-06T15:10:28.328Z,28.73
2019-02-06T15:13:05.238Z,30.03
2019-02-06T15:15:43.659Z,24.90
2019-02-06T15:18:33.771Z,34.07
2019-02-06T15:22:14.751Z,31.20
2019-02-06T15:24:53.674Z,34.13
2019-02-06T15:29:38.467Z,35.63
2019-02-06T15:32:33.645Z,32.77
2019-02-06T15:35:15.499Z,38.40
2019-02-06T15:38:03.531Z,34.37
2019-02-06T15:40:41.608Z,30.87
2019-02-06T15:43:21.781Z,28.33
2019-02-06T15:47:01.746Z,41.70
2019-02-06T15:49:40.845Z,32.97
2019-02-06T15:52:19.556Z,33.40
2019-02-06T15:55:02.315Z,36.73
2019-02-06T15:57:45.134Z,27.63
2019-02-06T16:01:32.978Z,28.00
2019-02-06T16:04:27.158Z,29.53
2019-02-06T16:07:10.224Z,33.97
2019-02-06T16:09:49.991Z,30.73
2019-02-06T16:12:29.335Z,29.80
2019-02-06T16:15:06.996Z,38.10
2019-02-06T16:19:49.186Z,37.97
2019-02-06T16:22:41.035Z,35.57
2019-02-06T16:25:20.554Z,26.87
2019-02-06T16:28:01.328Z,32.57
2019-02-06T16:30:40.763Z,36.53
2019-02-06T16:33:18.663Z,38.53
2019-02-06T16:36:22.084Z,35.07
2019-02-06T16:39:02.709Z,34.53
2019-02-06T16:42:06.833Z,31.10
2019-02-06T16:44:50.468Z,35.90
2019-02-06T16:47:44.779Z,36.73
2019-02-06T16:50:20.600Z,35.13
2019-02-06T16:53:00.764Z,34.77
2019-02-06T16:57:44.420Z,28.70
2019-02-06T17:00:30.352Z,28.47
2019-02-06T17:03:11.856Z,65.37
2019-02-06T17:05:51.938Z,59.97
2019-02-06T17:08:38.591Z,40.13
2019-02-06T17:11:20.527Z,44.13
2019-02-06T17:16:19.751Z,36.37
2019-02-06T17:18:57.652Z,31.17
2019-02-06T17:22:38.868Z,34.17
2019-02-06T17:27:22.690Z,38.63
2019-02-06T17:30:02.567Z,32.77
2019-02-06T17:32:47.883Z,35.33
2019-02-06T17:36:02.551Z,36.17
2019-02-06T17:38:41.332Z,36.53
2019-02-06T17:43:34.247Z,29.30
2019-02-06T17:46:15.188Z,34.67
2019-02-06T17:48:58.732Z,42.13
2019-02-06T17:51:49.622Z,33.20
2019-02-06T17:54:34.311Z,30.37
2019-02-06T17:57:03.212Z,28.27
2019-02-06T17:59:32.008Z,30.80
2019-02-06T18:02:00.801Z,32.97
2019-02-06T18:04:37.405Z,38.50
2019-02-06T18:07:06.451Z,31.73
2019-02-06T18:09:35.262Z,32.70
2019-02-06T18:12:04.092Z,29.17
2019-02-06T18:14:32.965Z,30.37
2019-02-06T18:17:03.366Z,26.60
2019-02-06T18:19:37.386Z,29.10
2019-02-06T18:22:07.124Z,28.90
2019-02-06T18:24:35.950Z,24.87
2019-02-06T18:27:05.617Z,27.10
2019-02-06T18:29:34.515Z,26.50
2019-02-06T18:32:03.307Z,26.23
2019-02-06T18:34:32.107Z,39.67
2019-02-06T18:37:00.903Z,24.00
2019-02-06T18:39:29.735Z,38.37
2019-02-06T18:41:58.577Z,45.17
2019-02-06T18:44:27.415Z,35.87
2019-02-06T18:46:56.358Z,27.23
2019-02-06T18:49:25.268Z,26.13
2019-02-06T18:51:54.068Z,32.70
2019-02-06T18:54:22.963Z,23.10
2019-02-06T18:56:51.811Z,22.10
2019-02-06T18:59:20.612Z,22.00
2019-02-06T19:01:49.452Z,24.33
2019-02-06T19:04:20.132Z,23.47
2019-02-06T19:06:48.925Z,36.83
2019-02-06T19:09:18.764Z,23.40
2019-02-06T19:11:47.571Z,24.47
2019-02-06T19:14:16.419Z,19.70
2019-02-06T19:16:45.287Z,22.87
2019-02-06T19:19:24.822Z,20.83
2019-02-06T19:21:42.993Z,26.53
2019-02-06T19:24:11.818Z,20.03
2019-02-06T19:26:40.612Z,19.30
2019-02-06T19:29:09.402Z,20.37
2019-02-06T19:31:38.209Z,19.60
2019-02-06T19:34:07.055Z,20.23
2019-02-06T19:36:35.844Z,19.23
2019-02-06T19:39:08.234Z,23.20
2019-02-06T19:41:37.113Z,20.90
2019-02-06T19:44:05.943Z,33.67
2019-02-06T19:46:34.723Z,17.60
2019-02-06T19:49:03.524Z,16.83
2019-02-06T19:51:32.399Z,29.03
2019-02-06T19:54:01.171Z,16.33
2019-02-06T19:56:29.964Z,18.93
2019-02-06T19:58:58.847Z,20.60
2019-02-06T20:01:27.653Z,19.20
2019-02-06T20:03:56.439Z,17.03
2019-02-06T20:06:30.038Z,19.93
2019-02-06T20:09:01.889Z,19.00
2019-02-06T20:11:30.676Z,17.03
2019-02-06T20:13:59.469Z,20.37
2019-02-06T20:16:28.263Z,25.20
2019-02-06T20:18:57.051Z,20.60
2019-02-06T20:21:25.826Z,21.17
2019-02-06T20:23:54.719Z,23.93
2019-02-06T20:26:23.503Z,18.73
2019-02-06T20:28:52.316Z,26.57
2019-02-06T20:31:21.131Z,20.47
2019-02-06T20:33:49.910Z,23.87
2019-02-06T20:36:18.712Z,23.17
2019-02-06T20:38:47.598Z,36.13
2019-02-06T20:41:16.414Z,31.93
2019-02-06T20:43:45.264Z,31.60
2019-02-06T20:46:14.065Z,22.57
2019-02-06T20:48:42.923Z,22.03
2019-02-06T20:51:11.727Z,21.87
2019-02-06T20:53:40.548Z,26.33
2019-02-06T20:56:09.495Z,22.43
2019-02-06T20:58:38.287Z,19.67
2019-02-06T21:01:07.123Z,21.80
2019-02-06T21:03:35.912Z,22.90
2019-02-06T21:06:04.770Z,23.70
2019-02-06T21:08:33.606Z,28.07
2019-02-06T21:11:02.515Z,20.37
2019-02-06T21:13:33.107Z,24.67
2019-02-06T21:16:00.261Z,23.23
2019-02-06T21:18:29.139Z,22.10
2019-02-06T21:20:57.950Z,19.80
2019-02-06T21:23:26.748Z,20.80
2019-02-06T21:25:55.652Z,22.63
2019-02-06T21:28:24.450Z,19.47
2019-02-06T21:30:53.248Z,21.37
2019-02-06T21:33:22.084Z,23.67
2019-02-06T21:35:50.880Z,24.67
2019-02-06T21:38:19.663Z,23.70
2019-02-06T21:40:48.498Z,19.33
2019-02-06T21:43:17.358Z,23.37
2019-02-06T21:45:46.145Z,23.97
2019-02-06T21:48:14.987Z,22.07
2019-02-06T21:50:43.799Z,25.03
2019-02-06T21:53:12.595Z,23.67
2019-02-06T21:55:41.410Z,29.17
2019-02-06T21:58:10.252Z,26.37
2019-02-06T22:00:40.738Z,24.33
2019-02-06T22:03:10.760Z,21.27
2019-02-06T22:05:38.345Z,27.90
2019-02-06T22:08:13.914Z,23.20
2019-02-06T22:10:42.715Z,24.40
2019-02-06T22:13:11.538Z,23.90
2019-02-06T22:15:40.346Z,24.73
2019-02-06T22:18:09.203Z,21.87
2019-02-06T22:20:38.044Z,31.07
2019-02-06T22:23:06.875Z,27.13
2019-02-06T22:25:35.764Z,34.60
2019-02-06T22:28:04.655Z,30.93
2019-02-06T22:30:33.526Z,26.90
2019-02-06T22:33:02.259Z,28.50
2019-02-06T22:35:31.078Z,24.90
2019-02-06T22:37:59.871Z,22.13
2019-02-06T22:40:28.707Z,19.87
2019-02-06T22:42:57.544Z,28.17
2019-02-06T22:45:27.080Z,21.63
2019-02-06T22:47:55.869Z,21.83
2019-02-06T22:50:25.901Z,18.37
2019-02-06T22:52:54.719Z,21.37
2019-02-06T22:55:23.517Z,21.13
2019-02-06T22:57:52.372Z,19.77
2019-02-06T23:00:35.671Z,20.07
2019-02-06T23:03:04.462Z,25.57
2019-02-06T23:05:34.223Z,21.83
2019-02-06T23:08:03.115Z,21.93
2019-02-06T23:10:31.883Z,24.40
2019-02-06T23:13:00.676Z,25.27
2019-02-06T23:15:29.519Z,22.63
2019-02-06T23:17:58.306Z,23.10
2019-02-06T23:20:27.161Z,27.90
2019-02-06T23:22:56.124Z,23.43
2019-02-06T23:25:24.979Z,24.70
2019-02-06T23:27:53.798Z,28.77
2019-02-06T23:30:22.603Z,23.23
2019-02-06T23:32:52.225Z,25.47
2019-02-06T23:35:21.070Z,25.43
2019-02-06T23:37:49.872Z,25.20
2019-02-06T23:40:19.326Z,29.60
2019-02-06T23:42:48.112Z,26.30
2019-02-06T23:45:16.898Z,24.37
2019-02-06T23:47:46.274Z,29.00
2019-02-06T23:50:15.071Z,44.07
2019-02-06T23:52:43.847Z,27.87
2019-02-06T23:55:12.633Z,29.63
2019-02-06T23:57:41.451Z,28.53
